createdAt,value
2022-07-30T00:00:12.670Z,19.15
2022-07-30T00:01:12.720Z,19.06
2022-07-30T00:02:12.644Z,19.07
2022-07-30T00:03:12.710Z,19.06
2022-07-30T00:04:12.636Z,19.10
2022-07-30T00:05:12.613Z,19.09
2022-07-30T00:06:12.608Z,19.05
2022-07-30T00:07:12.592Z,19.02
2022-07-30T00:08:12.577Z,19.07
2022-07-30T00:09:12.568Z,18.97
2022-07-30T00:10:12.554Z,18.94
2022-07-30T00:11:12.546Z,18.93
2022-07-30T00:12:12.533Z,18.94
2022-07-30T00:13:14.349Z,18.89
2022-07-30T00:14:12.525Z,18.96
2022-07-30T00:15:12.507Z,18.96
2022-07-30T00:16:12.532Z,18.93
2022-07-30T00:17:12.523Z,18.91
2022-07-30T00:18:12.473Z,18.90
2022-07-30T00:19:12.461Z,18.87
2022-07-30T00:20:12.643Z,18.86
2022-07-30T00:21:12.441Z,18.82
2022-07-30T00:22:12.428Z,18.84
2022-07-30T00:23:12.422Z,18.79
2022-07-30T00:24:12.406Z,18.76
2022-07-30T00:25:12.415Z,18.72
2022-07-30T00:26:12.388Z,18.75
2022-07-30T00:27:12.378Z,18.75
2022-07-30T00:28:12.367Z,18.74
2022-07-30T00:29:12.357Z,18.68
2022-07-30T00:30:12.344Z,18.65
2022-07-30T00:31:12.390Z,18.59
2022-07-30T00:32:12.328Z,18.60
2022-07-30T00:33:12.317Z,18.51
2022-07-30T00:34:12.306Z,18.49
2022-07-30T00:35:12.294Z,18.46
2022-07-30T00:36:12.282Z,18.44
2022-07-30T00:37:12.272Z,18.46
2022-07-30T00:38:12.267Z,18.44
2022-07-30T00:39:12.256Z,18.35
2022-07-30T00:40:12.240Z,18.31
2022-07-30T00:41:12.230Z,18.29
2022-07-30T00:42:12.222Z,18.35
2022-07-30T00:43:12.210Z,18.34
2022-07-30T00:44:12.201Z,18.36
2022-07-30T00:45:12.188Z,18.32
2022-07-30T00:46:12.278Z,18.35
2022-07-30T00:47:12.169Z,18.31
2022-07-30T00:48:12.161Z,18.35
2022-07-30T00:49:12.196Z,18.35
2022-07-30T00:50:12.136Z,18.32
2022-07-30T00:51:12.127Z,18.21
2022-07-30T00:52:12.121Z,18.23
2022-07-30T00:53:12.100Z,18.19
2022-07-30T00:54:12.094Z,18.19
2022-07-30T00:55:12.083Z,18.13
2022-07-30T00:56:12.075Z,18.19
2022-07-30T00:57:12.059Z,18.07
2022-07-30T00:58:12.050Z,18.09
2022-07-30T00:59:12.039Z,18.09
2022-07-30T01:00:12.032Z,18.04
2022-07-30T01:01:12.097Z,18.05
2022-07-30T01:02:12.057Z,17.99
2022-07-30T01:03:11.993Z,17.96
2022-07-30T01:04:12.018Z,17.96
2022-07-30T01:05:11.971Z,17.96
2022-07-30T01:06:14.291Z,17.94
2022-07-30T01:07:11.948Z,17.89
2022-07-30T01:08:11.939Z,17.84
2022-07-30T01:09:11.927Z,17.83
2022-07-30T01:10:11.926Z,17.87
2022-07-30T01:11:11.905Z,17.89
2022-07-30T01:12:11.898Z,17.83
2022-07-30T01:13:11.884Z,17.84
2022-07-30T01:14:11.873Z,17.86
2022-07-30T01:15:11.860Z,17.89
2022-07-30T01:16:11.922Z,17.89
2022-07-30T01:17:11.838Z,17.89
2022-07-30T01:18:11.831Z,17.89
2022-07-30T01:19:11.826Z,17.84
2022-07-30T01:20:11.819Z,17.89
2022-07-30T01:21:11.795Z,17.83
2022-07-30T01:22:11.784Z,17.83
2022-07-30T01:23:11.780Z,17.89
2022-07-30T01:24:11.765Z,17.83
2022-07-30T01:25:11.753Z,17.86
2022-07-30T01:26:11.742Z,17.80
2022-07-30T01:27:11.729Z,17.81
2022-07-30T01:28:11.718Z,17.84
2022-07-30T01:29:11.706Z,17.83
2022-07-30T01:30:11.696Z,17.81
2022-07-30T01:31:11.707Z,17.77
2022-07-30T01:32:11.675Z,17.81
2022-07-30T01:33:11.662Z,17.74
2022-07-30T01:34:11.653Z,17.76
2022-07-30T01:35:11.641Z,17.71
2022-07-30T01:36:11.632Z,17.73
2022-07-30T01:37:11.620Z,17.76
2022-07-30T01:38:11.608Z,17.74
2022-07-30T01:39:11.597Z,17.70
2022-07-30T01:40:11.590Z,17.74
2022-07-30T01:41:11.574Z,17.65
2022-07-30T01:42:11.569Z,17.73
2022-07-30T01:43:11.553Z,17.66
2022-07-30T01:44:11.541Z,17.66
2022-07-30T01:45:11.528Z,17.68
2022-07-30T01:46:11.600Z,17.62
2022-07-30T01:47:11.508Z,17.66
2022-07-30T01:48:11.496Z,17.62
2022-07-30T01:49:11.570Z,17.63
2022-07-30T01:50:11.474Z,17.60
2022-07-30T01:51:11.462Z,17.60
2022-07-30T01:52:11.453Z,17.60
2022-07-30T01:53:11.446Z,17.57
2022-07-30T01:54:11.431Z,17.53
2022-07-30T01:55:11.510Z,17.54
2022-07-30T01:56:11.576Z,17.53
2022-07-30T01:57:11.397Z,17.54
2022-07-30T01:58:11.387Z,17.51
2022-07-30T01:59:11.372Z,17.53
2022-07-30T02:00:11.382Z,17.47
2022-07-30T02:01:11.493Z,17.47
2022-07-30T02:02:11.342Z,17.42
2022-07-30T02:03:11.431Z,17.32
2022-07-30T02:04:11.322Z,17.35
2022-07-30T02:05:11.307Z,17.36
2022-07-30T02:06:11.298Z,17.28
2022-07-30T02:07:11.287Z,17.27
2022-07-30T02:08:11.275Z,17.28
2022-07-30T02:09:11.613Z,17.27
2022-07-30T02:10:11.261Z,17.22
2022-07-30T02:11:11.246Z,17.28
2022-07-30T02:12:11.232Z,17.27
2022-07-30T02:13:11.219Z,17.18
2022-07-30T02:14:11.210Z,17.15
2022-07-30T02:15:11.196Z,17.18
2022-07-30T02:16:11.217Z,17.07
2022-07-30T02:17:18.423Z,17.07
2022-07-30T02:18:11.165Z,17.03
2022-07-30T02:19:11.156Z,17.00
2022-07-30T02:20:11.143Z,16.99
2022-07-30T02:21:13.013Z,16.95
2022-07-30T02:22:11.123Z,16.90
2022-07-30T02:23:11.109Z,16.96
2022-07-30T02:24:11.098Z,16.85
2022-07-30T02:25:11.088Z,16.80
2022-07-30T02:26:11.080Z,16.73
2022-07-30T02:27:11.064Z,16.73
2022-07-30T02:28:11.056Z,16.70
2022-07-30T02:29:11.711Z,16.65
2022-07-30T02:30:11.035Z,16.45
2022-07-30T02:31:17.476Z,16.42
2022-07-30T02:32:11.010Z,16.44
2022-07-30T02:33:10.998Z,16.42
2022-07-30T02:34:10.991Z,16.36
2022-07-30T02:35:10.979Z,16.42
2022-07-30T02:36:11.381Z,16.36
2022-07-30T02:37:10.954Z,16.37
2022-07-30T02:38:10.944Z,16.32
2022-07-30T02:39:10.935Z,16.32
2022-07-30T02:40:10.923Z,16.30
2022-07-30T02:41:10.910Z,16.27
2022-07-30T02:42:10.902Z,16.33
2022-07-30T02:43:10.887Z,16.30
2022-07-30T02:44:10.880Z,16.26
2022-07-30T02:45:10.867Z,16.25
2022-07-30T02:46:10.896Z,16.10
2022-07-30T02:47:10.896Z,16.08
2022-07-30T02:48:10.837Z,16.03
2022-07-30T02:49:10.935Z,15.99
2022-07-30T02:50:10.813Z,15.96
2022-07-30T02:51:10.803Z,15.93
2022-07-30T02:52:10.793Z,15.98
2022-07-30T02:53:10.780Z,15.95
2022-07-30T02:54:10.774Z,15.98
2022-07-30T02:55:10.768Z,15.89
2022-07-30T02:56:10.747Z,15.88
2022-07-30T02:57:10.738Z,15.92
2022-07-30T02:58:10.725Z,15.88
2022-07-30T02:59:10.712Z,15.86
2022-07-30T03:00:10.701Z,15.91
2022-07-30T03:01:10.737Z,15.85
2022-07-30T03:02:10.731Z,15.81
2022-07-30T03:03:10.666Z,15.81
2022-07-30T03:04:10.658Z,15.78
2022-07-30T03:05:10.643Z,15.70
2022-07-30T03:06:10.636Z,15.58
2022-07-30T03:07:11.169Z,15.67
2022-07-30T03:08:10.614Z,15.56
2022-07-30T03:09:10.627Z,15.53
2022-07-30T03:10:10.591Z,15.56
2022-07-30T03:11:10.577Z,15.53
2022-07-30T03:12:10.568Z,15.58
2022-07-30T03:13:10.559Z,15.66
2022-07-30T03:14:10.543Z,15.67
2022-07-30T03:15:10.532Z,15.60
2022-07-30T03:16:10.603Z,15.66
2022-07-30T03:17:10.511Z,15.56
2022-07-30T03:18:10.498Z,15.58
2022-07-30T03:19:10.485Z,15.48
2022-07-30T03:20:10.483Z,15.52
2022-07-30T03:21:10.463Z,15.49
2022-07-30T03:22:10.454Z,15.43
2022-07-30T03:23:10.442Z,15.49
2022-07-30T03:24:10.429Z,15.48
2022-07-30T03:25:10.416Z,15.43
2022-07-30T03:26:10.406Z,15.41
2022-07-30T03:27:10.393Z,15.44
2022-07-30T03:28:10.385Z,15.37
2022-07-30T03:29:10.372Z,15.34
2022-07-30T03:30:10.361Z,15.30
2022-07-30T03:31:10.395Z,15.30
2022-07-30T03:32:10.338Z,15.27
2022-07-30T03:33:10.327Z,15.23
2022-07-30T03:34:10.318Z,15.11
2022-07-30T03:35:17.166Z,15.13
2022-07-30T03:36:11.319Z,15.05
2022-07-30T03:37:10.281Z,15.11
2022-07-30T03:38:10.272Z,15.15
2022-07-30T03:39:10.261Z,15.15
2022-07-30T03:40:10.249Z,15.16
2022-07-30T03:41:10.241Z,15.16
2022-07-30T03:42:10.231Z,15.12
2022-07-30T03:43:32.235Z,15.18
2022-07-30T03:44:10.208Z,15.16
2022-07-30T03:45:10.194Z,15.16
2022-07-30T03:46:10.250Z,15.18
2022-07-30T03:47:10.174Z,15.27
2022-07-30T03:48:10.164Z,15.19
2022-07-30T03:49:10.220Z,15.22
2022-07-30T03:50:10.146Z,15.15
2022-07-30T03:51:10.144Z,15.19
2022-07-30T03:52:10.124Z,15.13
2022-07-30T03:53:10.109Z,15.15
2022-07-30T03:54:13.367Z,15.09
2022-07-30T03:55:10.087Z,15.03
2022-07-30T03:56:10.082Z,14.93
2022-07-30T03:57:10.067Z,14.91
2022-07-30T03:58:10.059Z,14.87
2022-07-30T03:59:10.108Z,14.87
2022-07-30T04:00:10.116Z,14.94
2022-07-30T04:01:10.050Z,14.91
2022-07-30T04:02:10.130Z,14.90
2022-07-30T04:03:10.040Z,14.97
2022-07-30T04:04:10.148Z,14.97
2022-07-30T04:05:09.991Z,15.04
2022-07-30T04:06:09.994Z,14.98
2022-07-30T04:07:09.961Z,14.97
2022-07-30T04:08:09.952Z,14.98
2022-07-30T04:09:09.944Z,15.01
2022-07-30T04:10:09.931Z,15.00
2022-07-30T04:11:09.923Z,15.04
2022-07-30T04:12:09.909Z,15.07
2022-07-30T04:13:09.976Z,15.12
2022-07-30T04:14:09.888Z,15.16
2022-07-30T04:16:06.037Z,15.12
2022-07-30T04:16:41.306Z,15.11
2022-07-30T04:17:09.945Z,15.15
2022-07-30T04:18:09.845Z,15.12
2022-07-30T04:19:09.833Z,15.15
2022-07-30T04:20:09.834Z,15.01
2022-07-30T04:21:17.010Z,15.00
2022-07-30T04:22:09.804Z,14.93
2022-07-30T04:23:09.790Z,14.87
2022-07-30T04:24:09.782Z,14.97
2022-07-30T04:25:09.768Z,14.94
2022-07-30T04:26:09.759Z,15.00
2022-07-30T04:27:09.747Z,15.03
2022-07-30T04:28:09.738Z,14.97
2022-07-30T04:29:14.298Z,14.94
2022-07-30T04:30:09.719Z,14.98
2022-07-30T04:31:09.733Z,14.97
2022-07-30T04:32:09.710Z,15.00
2022-07-30T04:33:09.683Z,14.94
2022-07-30T04:34:09.675Z,14.91
2022-07-30T04:35:09.667Z,14.78
2022-07-30T04:36:11.174Z,14.75
2022-07-30T04:37:09.640Z,14.72
2022-07-30T04:38:09.631Z,14.79
2022-07-30T04:39:09.620Z,14.83
2022-07-30T04:40:09.609Z,14.86
2022-07-30T04:41:09.597Z,14.95
2022-07-30T04:42:09.590Z,14.91
2022-07-30T04:43:09.581Z,14.94
2022-07-30T04:44:09.579Z,14.97
2022-07-30T04:45:09.586Z,14.87
2022-07-30T04:46:09.594Z,14.91
2022-07-30T04:47:09.545Z,14.85
2022-07-30T04:48:09.531Z,14.93
2022-07-30T04:49:09.585Z,14.97
2022-07-30T04:50:09.502Z,14.95
2022-07-30T04:51:09.491Z,15.04
2022-07-30T04:52:09.477Z,15.04
2022-07-30T04:53:09.464Z,15.15
2022-07-30T04:54:15.209Z,15.19
2022-07-30T04:55:09.444Z,15.25
2022-07-30T04:56:09.433Z,15.28
2022-07-30T04:57:09.422Z,15.30
2022-07-30T04:58:09.409Z,15.44
2022-07-30T04:59:09.402Z,15.52
2022-07-30T05:00:09.386Z,15.55
2022-07-30T05:01:09.597Z,15.62
2022-07-30T05:02:09.443Z,15.68
2022-07-30T05:03:09.353Z,15.68
2022-07-30T05:04:09.341Z,15.71
2022-07-30T05:05:09.415Z,15.76
2022-07-30T05:06:09.318Z,15.66
2022-07-30T05:07:09.311Z,15.70
2022-07-30T05:08:09.335Z,15.74
2022-07-30T05:09:09.297Z,15.76
2022-07-30T05:10:09.317Z,15.80
2022-07-30T05:11:09.556Z,15.73
2022-07-30T05:12:09.250Z,15.74
2022-07-30T05:13:09.239Z,15.76
2022-07-30T05:14:09.246Z,15.80
2022-07-30T05:15:09.221Z,15.85
2022-07-30T05:16:09.246Z,15.89
2022-07-30T05:17:09.197Z,15.91
2022-07-30T05:18:09.185Z,15.96
2022-07-30T05:19:09.180Z,15.95
2022-07-30T05:20:09.165Z,15.95
2022-07-30T05:21:09.156Z,15.99
2022-07-30T05:22:09.141Z,16.04
2022-07-30T05:23:09.131Z,15.95
2022-07-30T05:24:09.123Z,16.04
2022-07-30T05:25:15.784Z,16.07
2022-07-30T05:26:09.096Z,16.14
2022-07-30T05:27:09.089Z,16.22
2022-07-30T05:28:09.078Z,16.37
2022-07-30T05:29:09.067Z,16.45
2022-07-30T05:30:10.083Z,16.72
2022-07-30T05:31:09.138Z,17.07
2022-07-30T05:32:09.057Z,17.14
2022-07-30T05:33:13.290Z,17.22
2022-07-30T05:34:09.043Z,17.33
2022-07-30T05:35:09.002Z,17.43
2022-07-30T05:36:08.988Z,17.46
2022-07-30T05:37:10.056Z,17.57
2022-07-30T05:38:08.965Z,17.66
2022-07-30T05:39:08.957Z,17.80
2022-07-30T05:40:08.945Z,17.70
2022-07-30T05:41:19.089Z,17.65
2022-07-30T05:42:09.960Z,17.63
2022-07-30T05:43:08.915Z,17.79
2022-07-30T05:44:08.906Z,17.91
2022-07-30T05:45:08.893Z,18.04
2022-07-30T05:46:08.925Z,18.41
2022-07-30T05:47:08.882Z,18.75
2022-07-30T05:48:08.859Z,19.15
2022-07-30T05:49:08.919Z,19.53
2022-07-30T05:50:08.837Z,19.72
2022-07-30T05:51:08.826Z,20.01
2022-07-30T05:52:08.814Z,20.22
2022-07-30T05:53:08.821Z,20.48
2022-07-30T05:54:08.902Z,20.72
2022-07-30T05:55:08.991Z,20.88
2022-07-30T05:56:09.001Z,21.12
2022-07-30T05:57:08.762Z,21.30
2022-07-30T05:58:08.768Z,21.46
2022-07-30T05:59:08.740Z,21.53
2022-07-30T06:00:10.728Z,21.59
2022-07-30T06:01:08.817Z,21.33
2022-07-30T06:02:08.710Z,21.05
2022-07-30T06:03:08.696Z,21.03
2022-07-30T06:04:08.722Z,21.03
2022-07-30T06:05:08.674Z,20.93
2022-07-30T06:06:08.666Z,21.01
2022-07-30T06:07:08.673Z,20.98
2022-07-30T06:08:08.642Z,20.71
2022-07-30T06:09:08.632Z,20.41
2022-07-30T06:10:08.620Z,20.30
2022-07-30T06:11:08.609Z,20.20
2022-07-30T06:12:08.597Z,20.16
2022-07-30T06:13:08.587Z,20.13
2022-07-30T06:14:08.578Z,20.15
2022-07-30T06:15:08.567Z,20.04
2022-07-30T06:16:08.594Z,19.89
2022-07-30T06:17:08.574Z,19.71
2022-07-30T06:18:08.571Z,19.72
2022-07-30T06:19:08.531Z,19.75
2022-07-30T06:20:08.517Z,19.70
2022-07-30T06:21:08.502Z,19.80
2022-07-30T06:22:08.492Z,19.80
2022-07-30T06:23:08.482Z,19.89
2022-07-30T06:24:08.469Z,19.95
2022-07-30T06:25:08.460Z,20.13
2022-07-30T06:26:08.447Z,20.22
2022-07-30T06:27:08.440Z,20.26
2022-07-30T06:28:27.864Z,20.37
2022-07-30T06:29:09.489Z,20.50
2022-07-30T06:30:08.403Z,20.57
2022-07-30T06:31:08.462Z,20.46
2022-07-30T06:32:08.381Z,20.42
2022-07-30T06:33:08.372Z,20.50
2022-07-30T06:34:08.358Z,20.57
2022-07-30T06:35:08.349Z,20.54
2022-07-30T06:36:08.338Z,20.54
2022-07-30T06:37:08.328Z,20.56
2022-07-30T06:38:08.335Z,20.50
2022-07-30T06:39:08.401Z,20.50
2022-07-30T06:40:08.335Z,20.50
2022-07-30T06:41:08.335Z,20.53
2022-07-30T06:42:08.278Z,20.57
2022-07-30T06:43:08.261Z,20.63
2022-07-30T06:44:08.250Z,20.69
2022-07-30T06:45:08.242Z,20.53
2022-07-30T06:46:08.283Z,20.35
2022-07-30T06:47:08.732Z,20.13
2022-07-30T06:48:08.208Z,20.04
2022-07-30T06:49:08.346Z,20.01
2022-07-30T06:50:08.229Z,20.08
2022-07-30T06:51:08.173Z,20.20
2022-07-30T06:52:08.425Z,20.37
2022-07-30T06:53:08.153Z,20.41
2022-07-30T06:54:08.142Z,20.40
2022-07-30T06:55:08.131Z,20.48
2022-07-30T06:56:08.119Z,20.41
2022-07-30T06:57:08.109Z,20.50
2022-07-30T06:58:08.095Z,20.64
2022-07-30T06:59:08.089Z,20.79
2022-07-30T07:00:08.077Z,20.78
2022-07-30T07:01:11.049Z,20.85
2022-07-30T07:02:08.069Z,21.01
2022-07-30T07:03:11.630Z,20.98
2022-07-30T07:04:08.122Z,20.90
2022-07-30T07:05:08.022Z,21.08
2022-07-30T07:06:08.010Z,21.08
2022-07-30T07:07:12.510Z,21.40
2022-07-30T07:08:08.000Z,21.64
2022-07-30T07:09:07.981Z,21.70
2022-07-30T07:10:07.970Z,21.73
2022-07-30T07:11:07.959Z,21.79
2022-07-30T07:12:07.946Z,21.77
2022-07-30T07:13:08.012Z,21.77
2022-07-30T07:14:07.926Z,21.79
2022-07-30T07:15:07.921Z,21.85
2022-07-30T07:16:07.903Z,22.09
2022-07-30T07:17:08.228Z,22.19
2022-07-30T07:18:07.887Z,22.52
2022-07-30T07:19:07.871Z,22.49
2022-07-30T07:20:07.861Z,22.42
2022-07-30T07:21:07.853Z,22.27
2022-07-30T07:22:07.845Z,22.09
2022-07-30T07:23:09.207Z,22.02
2022-07-30T07:24:07.852Z,21.90
2022-07-30T07:25:07.827Z,21.96
2022-07-30T07:26:07.839Z,21.96
2022-07-30T07:27:07.790Z,21.96
2022-07-30T07:28:11.622Z,22.04
2022-07-30T07:29:07.768Z,22.05
2022-07-30T07:30:07.757Z,22.04
2022-07-30T07:31:07.913Z,21.99
2022-07-30T07:32:08.199Z,21.96
2022-07-30T07:33:07.727Z,21.86
2022-07-30T07:34:07.719Z,21.94
2022-07-30T07:35:07.701Z,21.94
2022-07-30T07:36:07.692Z,22.05
2022-07-30T07:37:07.683Z,22.11
2022-07-30T07:38:07.676Z,22.14
2022-07-30T07:39:07.660Z,22.12
2022-07-30T07:40:07.651Z,22.20
2022-07-30T07:41:07.637Z,22.21
2022-07-30T07:42:07.626Z,22.11
2022-07-30T07:43:07.618Z,22.11
2022-07-30T07:44:07.607Z,22.04
2022-07-30T07:45:07.596Z,22.08
2022-07-30T07:46:07.697Z,22.11
2022-07-30T07:47:07.592Z,22.14
2022-07-30T07:48:07.590Z,22.17
2022-07-30T07:49:07.670Z,22.20
2022-07-30T07:50:07.539Z,22.20
2022-07-30T07:51:09.604Z,22.15
2022-07-30T07:52:07.521Z,22.12
2022-07-30T07:53:07.511Z,22.12
2022-07-30T07:54:21.136Z,22.12
2022-07-30T07:55:07.488Z,22.14
2022-07-30T07:56:07.476Z,22.09
2022-07-30T07:57:07.466Z,22.20
2022-07-30T07:58:07.456Z,22.29
2022-07-30T07:59:07.450Z,22.38
2022-07-30T08:00:07.437Z,22.48
2022-07-30T08:01:07.465Z,22.49
2022-07-30T08:02:08.121Z,22.48
2022-07-30T08:03:07.407Z,22.66
2022-07-30T08:04:10.183Z,22.88
2022-07-30T08:05:07.385Z,22.91
2022-07-30T08:06:10.830Z,22.66
2022-07-30T08:07:07.362Z,22.46
2022-07-30T08:08:07.350Z,22.46
2022-07-30T08:09:07.340Z,22.46
2022-07-30T08:10:07.361Z,22.38
2022-07-30T08:11:07.369Z,22.41
2022-07-30T08:12:07.318Z,22.41
2022-07-30T08:13:07.320Z,22.48
2022-07-30T08:14:07.293Z,22.51
2022-07-30T08:15:07.272Z,22.48
2022-07-30T08:16:07.274Z,22.35
2022-07-30T08:17:08.033Z,22.27
2022-07-30T08:18:07.241Z,22.26
2022-07-30T08:19:07.238Z,22.33
2022-07-30T08:20:07.260Z,22.31
2022-07-30T08:21:07.215Z,22.42
2022-07-30T08:22:07.203Z,22.42
2022-07-30T08:23:07.191Z,22.52
2022-07-30T08:24:07.174Z,22.59
2022-07-30T08:25:07.164Z,22.72
2022-07-30T08:26:07.160Z,22.82
2022-07-30T08:27:07.145Z,22.93
2022-07-30T08:28:07.130Z,22.91
2022-07-30T08:29:07.145Z,22.94
2022-07-30T08:30:07.199Z,22.96
2022-07-30T08:31:07.112Z,22.97
2022-07-30T08:32:07.115Z,22.93
2022-07-30T08:33:07.081Z,23.00
2022-07-30T08:34:07.071Z,22.94
2022-07-30T08:35:07.286Z,22.94
2022-07-30T08:36:09.604Z,22.94
2022-07-30T08:37:07.041Z,23.01
2022-07-30T08:38:07.025Z,23.06
2022-07-30T08:39:07.019Z,23.07
2022-07-30T08:40:07.004Z,23.15
2022-07-30T08:41:06.995Z,23.22
2022-07-30T08:42:06.986Z,23.18
2022-07-30T08:43:07.028Z,23.25
2022-07-30T08:44:11.596Z,23.29
2022-07-30T08:45:06.955Z,23.37
2022-07-30T08:46:06.943Z,23.49
2022-07-30T08:47:06.931Z,23.57
2022-07-30T08:48:06.918Z,23.68
2022-07-30T08:49:10.813Z,23.78
2022-07-30T08:50:06.902Z,23.86
2022-07-30T08:51:06.892Z,24.02
2022-07-30T08:52:06.892Z,24.06
2022-07-30T08:53:06.919Z,24.11
2022-07-30T08:54:06.875Z,24.06
2022-07-30T08:55:06.852Z,24.14
2022-07-30T08:56:06.860Z,24.23
2022-07-30T08:57:06.823Z,24.31
2022-07-30T08:58:06.813Z,24.14
2022-07-30T08:59:06.807Z,24.15
2022-07-30T09:00:06.790Z,24.34
2022-07-30T09:01:06.784Z,24.51
2022-07-30T09:02:10.401Z,24.68
2022-07-30T09:03:06.762Z,24.82
2022-07-30T09:04:06.763Z,25.04
2022-07-30T09:05:06.741Z,25.20
2022-07-30T09:06:06.728Z,25.39
2022-07-30T09:07:06.719Z,25.61
2022-07-30T09:08:08.976Z,25.86
2022-07-30T09:09:06.699Z,26.13
2022-07-30T09:10:06.691Z,26.24
2022-07-30T09:11:06.678Z,26.87
2022-07-30T09:12:06.665Z,27.08
2022-07-30T09:13:06.658Z,27.11
2022-07-30T09:14:08.604Z,26.88
2022-07-30T09:15:06.659Z,26.86
2022-07-30T09:16:06.685Z,27.08
2022-07-30T09:17:06.714Z,27.40
2022-07-30T09:18:06.628Z,27.65
2022-07-30T09:19:06.594Z,28.14
2022-07-30T09:20:06.596Z,28.74
2022-07-30T09:21:06.570Z,29.17
2022-07-30T09:22:06.563Z,29.71
2022-07-30T09:23:06.555Z,30.04
2022-07-30T09:24:06.546Z,30.36
2022-07-30T09:25:06.532Z,30.53
2022-07-30T09:26:06.520Z,30.76
2022-07-30T09:27:06.937Z,30.59
2022-07-30T09:28:11.151Z,30.70
2022-07-30T09:29:07.551Z,30.30
2022-07-30T09:30:06.483Z,30.63
2022-07-30T09:31:06.472Z,30.54
2022-07-30T09:32:06.856Z,30.30
2022-07-30T09:33:06.455Z,30.32
2022-07-30T09:34:06.443Z,30.70
2022-07-30T09:35:06.460Z,30.63
2022-07-30T09:36:06.424Z,30.10
2022-07-30T09:37:06.411Z,30.28
2022-07-30T09:38:06.821Z,30.16
2022-07-30T09:39:06.450Z,29.74
2022-07-30T09:40:06.421Z,29.37
2022-07-30T09:41:17.197Z,29.41
2022-07-30T09:42:06.377Z,29.76
2022-07-30T09:43:06.356Z,30.06
2022-07-30T09:44:06.374Z,30.16
2022-07-30T09:45:06.339Z,30.54
2022-07-30T09:46:06.325Z,31.00
2022-07-30T09:47:06.320Z,31.31
2022-07-30T09:48:06.306Z,31.54
2022-07-30T09:49:06.367Z,31.95
2022-07-30T09:50:07.501Z,32.17
2022-07-30T09:51:06.279Z,31.87
2022-07-30T09:52:07.688Z,31.84
2022-07-30T09:53:06.260Z,31.75
2022-07-30T09:54:06.249Z,31.47
2022-07-30T09:55:06.239Z,30.66
2022-07-30T09:56:06.233Z,30.21
2022-07-30T09:57:06.221Z,29.82
2022-07-30T09:58:07.237Z,29.99
2022-07-30T09:59:06.200Z,30.57
2022-07-30T10:00:06.194Z,30.96
2022-07-30T10:01:06.202Z,31.12
2022-07-30T10:02:10.273Z,31.07
2022-07-30T10:03:12.726Z,30.73
2022-07-30T10:04:07.187Z,31.22
2022-07-30T10:05:06.143Z,31.38
2022-07-30T10:06:06.134Z,31.88
2022-07-30T10:07:06.125Z,32.25
2022-07-30T10:08:09.344Z,31.94
2022-07-30T10:09:14.203Z,31.59
2022-07-30T10:10:07.122Z,31.99
2022-07-30T10:11:09.677Z,32.09
2022-07-30T10:12:10.309Z,32.06
2022-07-30T10:13:06.063Z,32.19
2022-07-30T10:14:06.061Z,32.27
2022-07-30T10:15:07.271Z,31.94
2022-07-30T10:16:06.042Z,32.24
2022-07-30T10:17:06.029Z,32.19
2022-07-30T10:18:06.623Z,32.28
2022-07-30T10:19:07.118Z,31.56
2022-07-30T10:20:08.206Z,31.50
2022-07-30T10:21:06.000Z,31.32
2022-07-30T10:22:05.985Z,31.16
2022-07-30T10:23:07.662Z,31.27
2022-07-30T10:24:06.878Z,31.69
2022-07-30T10:25:05.982Z,31.47
2022-07-30T10:26:05.965Z,31.03
2022-07-30T10:27:06.591Z,30.97
2022-07-30T10:28:05.924Z,31.74
2022-07-30T10:29:05.915Z,32.16
2022-07-30T10:30:05.917Z,32.14
2022-07-30T10:31:08.280Z,32.41
2022-07-30T10:32:05.884Z,32.63
2022-07-30T10:33:05.875Z,32.39
2022-07-30T10:34:05.874Z,32.54
2022-07-30T10:35:05.890Z,32.05
2022-07-30T10:36:05.850Z,31.59
2022-07-30T10:37:06.844Z,31.95
2022-07-30T10:38:05.828Z,31.75
2022-07-30T10:39:05.821Z,31.32
2022-07-30T10:40:05.809Z,31.03
2022-07-30T10:41:05.800Z,30.98
2022-07-30T10:42:05.787Z,31.22
2022-07-30T10:43:05.777Z,31.35
2022-07-30T10:44:05.771Z,31.67
2022-07-30T10:45:05.763Z,31.85
2022-07-30T10:46:05.775Z,31.60
2022-07-30T10:47:07.769Z,31.64
2022-07-30T10:48:05.851Z,32.49
2022-07-30T10:49:05.782Z,31.71
2022-07-30T10:50:05.714Z,31.15
2022-07-30T10:51:05.701Z,31.18
2022-07-30T10:52:05.689Z,31.13
2022-07-30T10:53:05.678Z,31.98
2022-07-30T10:54:05.670Z,32.72
2022-07-30T10:55:06.688Z,32.44
2022-07-30T10:56:05.656Z,31.71
2022-07-30T10:57:05.643Z,32.10
2022-07-30T10:58:05.922Z,32.84
2022-07-30T10:59:05.624Z,33.09
2022-07-30T11:00:05.615Z,33.40
2022-07-30T11:01:05.604Z,32.41
2022-07-30T11:02:07.058Z,31.76
2022-07-30T11:03:14.239Z,32.14
2022-07-30T11:04:05.577Z,32.63
2022-07-30T11:05:05.565Z,32.53
2022-07-30T11:06:05.558Z,31.71
2022-07-30T11:07:05.548Z,31.88
2022-07-30T11:08:05.541Z,31.94
2022-07-30T11:09:05.545Z,31.92
2022-07-30T11:10:09.496Z,31.82
2022-07-30T11:11:19.690Z,31.59
2022-07-30T11:12:06.826Z,31.28
2022-07-30T11:13:05.489Z,30.68
2022-07-30T11:14:05.479Z,30.22
2022-07-30T11:15:06.888Z,30.01
2022-07-30T11:16:07.518Z,29.82
2022-07-30T11:17:05.450Z,29.55
2022-07-30T11:18:12.510Z,29.60
2022-07-30T11:19:55.016Z,29.63
2022-07-30T11:20:06.463Z,29.82
2022-07-30T11:21:05.963Z,30.06
2022-07-30T11:22:05.575Z,30.30
2022-07-30T11:23:05.393Z,30.45
2022-07-30T11:24:05.380Z,31.52
2022-07-30T11:25:13.087Z,32.62
2022-07-30T11:26:06.391Z,32.58
2022-07-30T11:27:05.353Z,32.65
2022-07-30T11:28:05.342Z,33.52
2022-07-30T11:29:05.335Z,33.78
2022-07-30T11:30:05.373Z,33.62
2022-07-30T11:31:10.396Z,33.47
2022-07-30T11:32:06.996Z,33.78
2022-07-30T11:33:05.358Z,33.07
2022-07-30T11:34:05.409Z,32.93
2022-07-30T11:35:05.295Z,33.15
2022-07-30T11:36:05.263Z,33.47
2022-07-30T11:37:18.816Z,33.94
2022-07-30T11:38:05.256Z,34.21
2022-07-30T11:39:07.365Z,34.12
2022-07-30T11:40:05.227Z,33.79
2022-07-30T11:41:05.216Z,33.35
2022-07-30T11:42:05.206Z,32.62
2022-07-30T11:43:05.197Z,31.82
2022-07-30T11:44:05.184Z,30.94
2022-07-30T11:45:05.180Z,30.53
2022-07-30T11:46:05.166Z,30.45
2022-07-30T11:47:05.157Z,30.16
2022-07-30T11:48:05.147Z,29.79
2022-07-30T11:49:05.340Z,29.58
2022-07-30T11:50:05.129Z,29.63
2022-07-30T11:51:05.115Z,29.44
2022-07-30T11:52:05.285Z,29.35
2022-07-30T11:53:05.095Z,29.39
2022-07-30T11:54:05.091Z,29.45
2022-07-30T11:55:05.087Z,29.26
2022-07-30T11:56:05.096Z,29.36
2022-07-30T11:57:05.095Z,29.42
2022-07-30T11:58:05.060Z,29.60
2022-07-30T11:59:05.034Z,29.70
2022-07-30T12:00:05.031Z,29.69
2022-07-30T12:01:09.439Z,29.54
2022-07-30T12:02:05.500Z,29.52
2022-07-30T12:03:05.002Z,29.67
2022-07-30T12:04:04.995Z,29.92
2022-07-30T12:05:04.972Z,31.30
2022-07-30T12:06:04.966Z,32.49
2022-07-30T12:07:05.250Z,33.20
2022-07-30T12:08:04.945Z,33.81
2022-07-30T12:09:04.931Z,34.46
2022-07-30T12:10:04.922Z,34.53
2022-07-30T12:11:04.930Z,33.79
2022-07-30T12:12:04.906Z,33.52
2022-07-30T12:13:04.893Z,33.84
2022-07-30T12:14:04.887Z,34.12
2022-07-30T12:15:04.877Z,34.40
2022-07-30T12:16:04.867Z,34.94
2022-07-30T12:17:05.288Z,34.55
2022-07-30T12:18:25.207Z,34.73
2022-07-30T12:19:05.876Z,34.76
2022-07-30T12:20:05.033Z,34.84
2022-07-30T12:21:04.897Z,35.15
2022-07-30T12:22:04.877Z,35.40
2022-07-30T12:23:04.866Z,35.71
2022-07-30T12:24:04.849Z,35.73
2022-07-30T12:25:04.800Z,35.98
2022-07-30T12:26:04.969Z,36.21
2022-07-30T12:27:05.438Z,36.15
2022-07-30T12:28:04.754Z,35.74
2022-07-30T12:29:04.743Z,34.81
2022-07-30T12:30:04.736Z,34.98
2022-07-30T12:31:04.726Z,35.24
2022-07-30T12:32:04.716Z,34.46
2022-07-30T12:33:04.706Z,33.81
2022-07-30T12:34:04.697Z,33.28
2022-07-30T12:35:04.687Z,32.77
2022-07-30T12:36:04.678Z,32.49
2022-07-30T12:37:04.967Z,32.19
2022-07-30T12:38:04.660Z,31.57
2022-07-30T12:39:04.647Z,31.19
2022-07-30T12:40:04.639Z,31.05
2022-07-30T12:41:04.631Z,31.07
2022-07-30T12:42:04.641Z,31.09
2022-07-30T12:43:04.681Z,31.15
2022-07-30T12:44:05.625Z,31.12
2022-07-30T12:45:04.593Z,30.96
2022-07-30T12:46:04.586Z,30.96
2022-07-30T12:47:05.231Z,30.94
2022-07-30T12:48:04.565Z,31.10
2022-07-30T12:49:17.486Z,31.10
2022-07-30T12:50:04.581Z,31.00
2022-07-30T12:51:04.529Z,30.88
2022-07-30T12:52:04.520Z,30.96